Time;durP1;ratioP1;P1;durP2;ratioP2;P2;SDS_P1;SDS_P2;PMS_P1;PMS_P2;Temp;Humidity;BMP_temperature;BMP_pressure;BME280_temperature;BME280_humidity;BME280_pressure;Samples;Min_cycle;Max_cycle;Signal;HPM_P1;HPM_P2
2023/12/09 00:02:16;;;;;;;6.50;5.20;;;7.40;99.90;;;;;;5018310;28;20482;-39
2023/12/09 00:04:45;;;;;;;5.90;4.30;;;7.40;99.90;;;;;;4990256;28;20447;-37
2023/12/09 00:07:11;;;;;;;7.30;5.23;;;7.40;99.90;;;;;;5019101;28;20489;-36
2023/12/09 00:09:37;;;;;;;6.20;4.90;;;7.40;99.90;;;;;;5013375;28;20552;-35
2023/12/09 00:12:03;;;;;;;5.93;4.80;;;7.40;99.90;;;;;;5011874;28;20985;-38
2023/12/09 00:14:29;;;;;;;8.27;4.87;;;7.40;99.90;;;;;;5020317;28;20808;-37
2023/12/09 00:16:55;;;;;;;7.00;4.20;;;7.40;99.90;;;;;;5020312;28;20431;-34
2023/12/09 00:19:21;;;;;;;5.13;4.30;;;7.40;99.90;;;;;;5019388;28;21211;-37
2023/12/09 00:21:47;;;;;;;6.87;4.43;;;7.40;99.90;;;;;;5017633;28;20434;-38
2023/12/09 00:24:13;;;;;;;5.63;4.13;;;7.40;99.90;;;;;;5018966;28;21303;-36
2023/12/09 00:26:41;;;;;;;6.57;5.30;;;7.40;99.90;;;;;;5000954;28;21059;-35
2023/12/09 00:29:07;;;;;;;7.50;5.27;;;7.40;99.90;;;;;;5018194;28;20440;-34
2023/12/09 00:31:33;;;;;;;6.83;4.70;;;7.40;99.90;;;;;;5009595;28;20467;-34
2023/12/09 00:33:59;;;;;;;7.20;4.90;;;7.40;99.90;;;;;;5018876;28;20456;-35
2023/12/09 00:36:25;;;;;;;5.07;4.40;;;7.40;99.90;;;;;;4999476;28;20428;-37
2023/12/09 00:38:51;;;;;;;6.23;5.03;;;7.40;99.90;;;;;;5019276;28;20443;-39
2023/12/09 00:41:19;;;;;;;12.30;5.67;;;7.40;99.90;;;;;;5002309;28;20450;-36
2023/12/09 00:43:45;;;;;;;7.37;4.93;;;7.40;99.90;;;;;;4991744;28;20443;-37
2023/12/09 00:46:12;;;;;;;7.33;4.43;;;7.40;99.90;;;;;;5019285;28;20849;-38
2023/12/09 00:48:37;;;;;;;6.60;4.60;;;7.40;99.90;;;;;;5019030;28;20437;-39
2023/12/09 00:51:09;;;;;;;6.10;4.27;;;7.40;99.90;;;;;;5019179;28;20471;-38
2023/12/09 00:53:35;;;;;;;6.60;4.63;;;7.40;99.90;;;;;;4998429;28;21088;-36
2023/12/09 00:56:03;;;;;;;5.10;4.50;;;7.40;99.90;;;;;;5019291;28;20419;-33
2023/12/09 00:58:29;;;;;;;6.03;4.23;;;7.40;99.90;;;;;;5018682;28;20931;-38
2023/12/09 01:00:55;;;;;;;6.50;4.20;;;7.50;99.90;;;;;;5011964;28;20442;-33
2023/12/09 01:03:21;;;;;;;5.17;3.80;;;7.40;99.90;;;;;;5018592;28;21037;-38
2023/12/09 01:05:49;;;;;;;5.47;4.60;;;7.40;99.90;;;;;;5018755;28;20479;-39
2023/12/09 01:08:18;;;;;;;5.10;4.53;;;7.50;99.90;;;;;;5019445;28;20554;-36
2023/12/09 01:10:44;;;;;;;5.07;4.20;;;7.50;99.90;;;;;;5018576;28;20641;-38
2023/12/09 01:13:12;;;;;;;7.87;4.77;;;7.50;99.90;;;;;;5019036;28;20427;-39
2023/12/09 01:15:39;;;;;;;7.13;4.30;;;7.50;99.90;;;;;;5018916;28;20982;-38
2023/12/09 01:18:05;;;;;;;5.10;4.13;;;7.50;99.90;;;;;;5015351;28;20436;-37
2023/12/09 01:20:31;;;;;;;7.97;5.00;;;7.50;99.90;;;;;;4999638;28;20447;-34
2023/12/09 01:22:57;;;;;;;5.80;4.27;;;7.50;99.90;;;;;;5017072;28;21267;-34
2023/12/09 01:25:25;;;;;;;5.70;4.40;;;7.50;99.90;;;;;;5018932;28;20455;-33
2023/12/09 01:27:52;;;;;;;5.87;4.00;;;7.50;99.90;;;;;;5017349;28;20973;-39
2023/12/09 01:30:20;;;;;;;7.70;4.20;;;7.50;99.90;;;;;;5010831;28;20471;-35
2023/12/09 01:32:46;;;;;;;6.00;4.83;;;7.40;99.90;;;;;;5018475;28;20756;-36
2023/12/09 01:35:13;;;;;;;9.13;4.43;;;7.50;99.90;;;;;;5019152;28;20448;-38
2023/12/09 01:37:42;;;;;;;4.10;3.70;;;7.50;99.90;;;;;;5018786;28;20898;-34
2023/12/09 01:40:11;;;;;;;5.43;4.00;;;7.50;99.90;;;;;;5014215;28;21012;-35
2023/12/09 01:42:39;;;;;;;5.20;4.57;;;7.50;99.90;;;;;;5018625;28;20416;-33
2023/12/09 01:45:06;;;;;;;5.47;4.00;;;7.50;99.90;;;;;;5018030;28;20452;-39
2023/12/09 01:47:37;;;;;;;7.10;4.63;;;7.50;99.90;;;;;;5018035;28;20431;-38
2023/12/09 01:50:04;;;;;;;9.57;4.10;;;7.50;99.90;;;;;;5016652;28;20495;-38
2023/12/09 01:52:34;;;;;;;5.10;4.20;;;7.50;99.90;;;;;;5012890;28;20451;-35
2023/12/09 01:55:00;;;;;;;6.73;4.00;;;7.50;99.90;;;;;;5017645;28;21029;-36
2023/12/09 01:57:27;;;;;;;6.00;4.00;;;7.50;99.90;;;;;;5032263;28;20424;-33
2023/12/09 01:59:53;;;;;;;7.03;4.07;;;7.50;99.90;;;;;;5018082;28;20965;-35
2023/12/09 02:02:19;;;;;;;5.30;4.17;;;7.50;99.90;;;;;;5018403;28;20432;-39
2023/12/09 02:04:50;;;;;;;4.97;4.00;;;7.50;99.90;;;;;;5015725;28;20530;-36
2023/12/09 02:07:17;;;;;;;6.37;4.33;;;7.50;99.90;;;;;;5001672;28;20428;-34
2023/12/09 02:09:45;;;;;;;9.27;4.77;;;7.50;99.90;;;;;;5014344;28;20424;-36
2023/12/09 02:12:49;;;;;;;5.30;4.13;;;7.50;99.90;;;;;;5017800;28;20559;-36
2023/12/09 02:15:41;;;;;;;4.90;3.60;;;7.50;99.90;;;;;;5003913;28;20466;-38
2023/12/09 02:18:08;;;;;;;4.70;4.27;;;7.50;99.90;;;;;;5016374;28;20466;-36
2023/12/09 02:20:34;;;;;;;5.90;3.73;;;7.50;99.90;;;;;;5013229;28;20450;-35
2023/12/09 02:23:10;;;;;;;4.23;3.87;;;7.50;99.90;;;;;;5015776;28;20510;-33
2023/12/09 02:25:37;;;;;;;6.43;4.53;;;7.50;99.90;;;;;;5015497;28;20455;-35
2023/12/09 02:28:26;;;;;;;8.03;4.63;;;7.50;99.90;;;;;;5015016;28;20450;-35
2023/12/09 02:31:14;;;;;;;7.90;4.00;;;7.50;99.90;;;;;;5006491;28;20464;-38
2023/12/09 02:33:43;;;;;;;7.23;4.13;;;7.50;99.90;;;;;;5017727;28;20522;-35
2023/12/09 02:36:12;;;;;;;5.60;4.07;;;7.50;99.90;;;;;;5017704;28;20509;-39
2023/12/09 02:38:40;;;;;;;4.07;3.50;;;7.50;99.90;;;;;;4998958;28;20538;-33
2023/12/09 02:41:09;;;;;;;7.33;4.53;;;7.50;99.90;;;;;;5018066;28;20513;-36
2023/12/09 02:43:36;;;;;;;8.60;4.33;;;7.50;99.90;;;;;;5015275;28;20501;-39
2023/12/09 02:46:02;;;;;;;4.90;4.10;;;7.50;99.90;;;;;;5017805;28;20432;-38
2023/12/09 02:48:28;;;;;;;7.20;3.97;;;7.50;99.90;;;;;;5015270;28;20420;-37
2023/12/09 02:50:55;;;;;;;10.07;4.50;;;7.50;99.90;;;;;;5024890;28;20473;-36
2023/12/09 02:53:23;;;;;;;4.77;4.27;;;7.50;99.90;;;;;;5015839;28;20434;-36
2023/12/09 02:55:49;;;;;;;5.47;3.60;;;7.50;99.90;;;;;;5016757;28;20451;-39
2023/12/09 02:58:16;;;;;;;4.53;3.67;;;7.50;99.90;;;;;;5016539;28;20465;-36
2023/12/09 03:00:42;;;;;;;7.60;4.00;;;7.50;99.90;;;;;;4992626;28;20428;-36
2023/12/09 03:03:10;;;;;;;4.17;3.77;;;7.50;99.90;;;;;;5017051;28;20444;-38
2023/12/09 03:05:36;;;;;;;8.00;3.93;;;7.50;99.90;;;;;;5017221;28;21421;-35
2023/12/09 03:08:04;;;;;;;5.53;3.87;;;7.50;99.90;;;;;;5016629;28;20508;-38
2023/12/09 03:10:29;;;;;;;6.77;3.73;;;7.50;99.90;;;;;;5016573;28;20471;-35
2023/12/09 03:12:56;;;;;;;6.03;3.97;;;7.50;99.90;;;;;;4997139;28;20519;-39
2023/12/09 03:15:24;;;;;;;8.30;4.00;;;7.50;99.90;;;;;;5007023;28;20670;-36
2023/12/09 03:17:55;;;;;;;5.03;3.90;;;7.50;99.90;;;;;;5014887;28;20432;-38
2023/12/09 03:20:25;;;;;;;7.50;3.83;;;7.50;99.90;;;;;;5013480;28;20534;-37
2023/12/09 03:22:51;;;;;;;5.73;4.47;;;7.50;99.90;;;;;;5014000;28;20447;-39
2023/12/09 03:25:17;;;;;;;4.80;3.50;;;7.50;99.90;;;;;;4998397;28;20455;-38
2023/12/09 03:27:43;;;;;;;7.53;4.07;;;7.50;99.90;;;;;;5016840;28;20444;-36
2023/12/09 03:30:09;;;;;;;5.70;3.43;;;7.50;99.90;;;;;;5017032;28;20479;-37
2023/12/09 03:36:48;;;;;;;3.80;3.43;;;7.50;99.90;;;;;;5022113;22;20528;-34
2023/12/09 03:39:16;;;;;;;5.60;3.80;;;7.50;99.90;;;;;;4993806;28;20593;-38
2023/12/09 03:41:42;;;;;;;6.00;3.47;;;7.50;99.90;;;;;;5020194;28;20621;-39
2023/12/09 03:44:08;;;;;;;7.30;4.27;;;7.50;99.90;;;;;;5017287;28;20521;-39
2023/12/09 03:46:37;;;;;;;7.60;4.00;;;7.50;99.90;;;;;;5009982;28;20451;-35
2023/12/09 03:49:03;;;;;;;4.03;3.50;;;7.50;99.90;;;;;;5034350;22;20540;-29
2023/12/09 03:51:31;;;;;;;4.40;3.73;;;7.50;99.90;;;;;;5001225;28;20468;-27
2023/12/09 03:53:57;;;;;;;4.93;3.87;;;7.50;99.90;;;;;;5015558;28;20478;-28
2023/12/09 03:56:26;;;;;;;4.47;3.40;;;7.50;99.90;;;;;;5018851;28;20467;-27
2023/12/09 03:58:53;;;;;;;5.47;3.33;;;7.50;99.90;;;;;;5019048;28;20463;-27
2023/12/09 04:01:22;;;;;;;4.77;3.47;;;7.50;99.90;;;;;;5009438;28;20431;-27
2023/12/09 04:03:48;;;;;;;5.20;4.00;;;7.50;99.90;;;;;;5019059;28;20991;-27
2023/12/09 04:06:15;;;;;;;6.00;3.93;;;7.50;99.90;;;;;;5008241;28;20474;-28
2023/12/09 04:08:44;;;;;;;6.97;3.80;;;7.50;99.90;;;;;;5018759;28;20501;-27
2023/12/09 04:11:12;;;;;;;6.67;3.43;;;7.50;99.90;;;;;;5019366;28;21537;-28
2023/12/09 04:13:40;;;;;;;4.63;3.73;;;7.50;99.90;;;;;;5019698;28;20515;-28
2023/12/09 04:16:09;;;;;;;6.50;3.43;;;7.50;99.90;;;;;;5011444;28;20434;-28
2023/12/09 04:18:36;;;;;;;5.07;3.43;;;7.50;99.90;;;;;;5010121;28;20792;-27
2023/12/09 04:21:06;;;;;;;7.27;4.33;;;7.50;99.90;;;;;;5011102;28;21041;-27
2023/12/09 04:23:32;;;;;;;6.80;3.47;;;7.50;99.90;;;;;;5009259;28;20625;-28
2023/12/09 04:26:00;;;;;;;4.83;3.90;;;7.50;99.90;;;;;;5018520;28;20833;-27
2023/12/09 04:28:26;;;;;;;11.53;4.00;;;7.50;99.90;;;;;;5018144;28;20428;-28
2023/12/09 04:30:57;;;;;;;6.17;3.70;;;7.50;99.90;;;;;;5017667;28;20502;-27
2023/12/09 04:33:25;;;;;;;4.30;3.50;;;7.50;99.90;;;;;;5015179;28;21386;-27
2023/12/09 04:35:51;;;;;;;5.87;3.50;;;7.50;99.90;;;;;;5018121;28;20456;-27
2023/12/09 04:38:17;;;;;;;4.50;3.47;;;7.50;99.90;;;;;;5018892;28;20442;-28
2023/12/09 04:40:45;;;;;;;7.40;3.90;;;7.50;99.90;;;;;;4991039;28;20213;-28
2023/12/09 04:43:11;;;;;;;9.10;3.87;;;7.50;99.90;;;;;;5022486;28;20497;-27
2023/12/09 04:45:40;;;;;;;5.87;4.03;;;7.50;99.90;;;;;;5009850;28;21020;-27
2023/12/09 04:48:06;;;;;;;4.97;3.57;;;7.50;99.90;;;;;;5022452;28;20555;-27
2023/12/09 04:50:33;;;;;;;4.00;3.60;;;7.50;99.90;;;;;;5012845;28;20475;-28
2023/12/09 04:52:59;;;;;;;4.73;3.10;;;7.50;99.90;;;;;;5030590;28;20463;-28
2023/12/09 04:55:26;;;;;;;3.50;3.20;;;7.50;99.90;;;;;;4994206;28;20475;-27
2023/12/09 04:57:52;;;;;;;3.33;3.03;;;7.50;99.90;;;;;;4993322;28;20578;-27
2023/12/09 05:00:21;;;;;;;6.53;3.30;;;7.50;99.90;;;;;;5022233;28;20433;-27
2023/12/09 05:02:50;;;;;;;4.50;3.13;;;7.50;99.90;;;;;;5022613;28;20907;-27
2023/12/09 05:05:18;;;;;;;11.00;3.73;;;7.50;99.90;;;;;;5015568;28;20509;-27
2023/12/09 05:07:47;;;;;;;5.63;3.70;;;7.50;99.90;;;;;;5022916;28;20926;-28
2023/12/09 05:10:16;;;;;;;6.07;3.63;;;7.50;99.90;;;;;;5015675;28;20482;-28
2023/12/09 05:12:43;;;;;;;4.80;4.00;;;7.50;99.90;;;;;;5014590;28;20420;-27
2023/12/09 05:15:10;;;;;;;6.57;3.97;;;7.50;99.90;;;;;;5022088;28;20542;-27
2023/12/09 05:17:36;;;;;;;4.77;3.33;;;7.50;99.90;;;;;;5020025;28;20507;-27
2023/12/09 05:20:04;;;;;;;6.47;3.30;;;7.50;99.90;;;;;;5027408;28;21184;-27
2023/12/09 05:22:30;;;;;;;6.57;3.70;;;7.50;99.90;;;;;;5011790;28;20519;-27
2023/12/09 05:25:02;;;;;;;6.03;3.77;;;7.50;99.90;;;;;;5016927;28;20607;-27
2023/12/09 05:27:28;;;;;;;6.33;3.50;;;7.50;99.90;;;;;;5021998;28;21388;-27
2023/12/09 05:29:54;;;;;;;3.87;3.57;;;7.50;99.90;;;;;;5010537;28;20539;-28
2023/12/09 05:32:20;;;;;;;6.90;3.50;;;7.50;99.90;;;;;;5001229;28;20550;-28
2023/12/09 05:34:48;;;;;;;5.47;3.03;;;7.50;99.90;;;;;;5028411;28;20474;-27
2023/12/09 05:37:17;;;;;;;4.50;3.73;;;7.50;99.90;;;;;;5022274;28;20428;-27
2023/12/09 05:39:43;;;;;;;8.10;3.67;;;7.50;99.90;;;;;;5021682;28;20435;-28
2023/12/09 05:42:09;;;;;;;4.70;3.70;;;7.50;99.90;;;;;;5012203;28;20447;-28
2023/12/09 05:44:35;;;;;;;3.90;3.07;;;7.50;99.90;;;;;;5021113;28;20205;-27
2023/12/09 05:47:04;;;;;;;7.23;4.33;;;7.50;99.90;;;;;;5021530;28;20473;-27
2023/12/09 05:49:30;;;;;;;5.90;3.20;;;7.50;99.90;;;;;;5021232;28;20470;-27
2023/12/09 05:51:57;;;;;;;6.20;3.60;;;7.50;99.90;;;;;;5021016;28;20471;-27
2023/12/09 05:54:23;;;;;;;6.40;4.00;;;7.50;99.90;;;;;;5021668;28;20283;-27
2023/12/09 05:56:50;;;;;;;10.43;3.73;;;7.50;99.90;;;;;;5014734;28;20547;-27
2023/12/09 05:59:16;;;;;;;5.90;3.90;;;7.50;99.90;;;;;;5015698;28;20798;-27
2023/12/09 06:01:44;;;;;;;6.10;3.53;;;7.50;99.90;;;;;;5014154;28;20424;-28
2023/12/09 06:04:12;;;;;;;7.77;4.10;;;7.50;99.90;;;;;;5021603;28;20982;-28
2023/12/09 06:06:38;;;;;;;4.03;2.97;;;7.50;99.90;;;;;;5011710;28;20432;-27
2023/12/09 06:09:04;;;;;;;6.30;3.20;;;7.50;99.90;;;;;;5011399;28;20431;-28
2023/12/09 06:11:31;;;;;;;4.53;3.33;;;7.50;99.90;;;;;;5017780;28;20492;-28
2023/12/09 06:13:57;;;;;;;7.03;4.73;;;7.50;99.90;;;;;;5009557;28;20863;-27
2023/12/09 06:16:25;;;;;;;4.20;3.20;;;7.50;99.90;;;;;;5021317;28;20435;-27
2023/12/09 06:18:51;;;;;;;6.00;3.27;;;7.50;99.90;;;;;;5016364;28;21075;-27
2023/12/09 06:21:21;;;;;;;4.10;3.53;;;7.50;99.90;;;;;;4997178;28;20946;-27
2023/12/09 06:23:48;;;;;;;4.97;3.70;;;7.50;99.90;;;;;;5017309;28;20506;-27
2023/12/09 06:26:16;;;;;;;6.50;3.50;;;7.50;99.90;;;;;;5020143;28;20450;-27
2023/12/09 06:28:42;;;;;;;8.53;3.57;;;7.50;99.90;;;;;;5020638;28;20455;-27
2023/12/09 06:31:10;;;;;;;6.33;4.33;;;7.50;99.90;;;;;;5019996;28;20471;-28
2023/12/09 06:33:37;;;;;;;8.53;3.90;;;7.50;99.90;;;;;;5020103;28;20558;-27
2023/12/09 06:36:09;;;;;;;5.87;3.50;;;7.50;99.90;;;;;;5018290;28;20424;-27
2023/12/09 06:38:39;;;;;;;7.10;3.63;;;7.50;99.90;;;;;;5019138;28;20450;-28
2023/12/09 06:41:06;;;;;;;5.27;3.60;;;7.50;99.90;;;;;;5018858;28;20444;-28
2023/12/09 06:43:33;;;;;;;6.83;4.00;;;7.50;99.90;;;;;;5031367;28;20424;-28
2023/12/09 06:46:00;;;;;;;6.90;3.40;;;7.50;99.90;;;;;;5019269;28;21200;-28
2023/12/09 06:48:27;;;;;;;6.80;3.97;;;7.50;99.90;;;;;;5014867;28;20444;-28
2023/12/09 06:50:52;;;;;;;6.13;3.50;;;7.50;99.90;;;;;;5015580;28;20475;-28
2023/12/09 06:53:18;;;;;;;4.20;3.30;;;7.50;99.90;;;;;;5019446;28;20424;-27
2023/12/09 06:55:44;;;;;;;3.70;3.30;;;7.50;99.90;;;;;;5019519;28;20470;-27
2023/12/09 06:58:10;;;;;;;6.20;3.87;;;7.50;99.90;;;;;;5020024;28;20428;-27
2023/12/09 07:00:39;;;;;;;5.77;3.40;;;7.50;99.90;;;;;;5016573;28;20435;-27
2023/12/09 07:03:07;;;;;;;5.10;3.80;;;7.50;99.90;;;;;;5020452;28;20479;-27
2023/12/09 07:05:38;;;;;;;3.93;3.30;;;7.50;99.90;;;;;;5020850;28;20530;-28
2023/12/09 07:08:04;;;;;;;5.73;3.40;;;7.50;99.90;;;;;;5021536;28;20431;-27
2023/12/09 07:10:30;;;;;;;5.77;3.40;;;7.50;99.90;;;;;;5020534;28;20475;-27
2023/12/09 07:12:57;;;;;;;3.43;3.13;;;7.50;99.90;;;;;;5019907;28;20419;-28
2023/12/09 07:15:23;;;;;;;4.87;3.63;;;7.50;99.90;;;;;;5019150;28;20447;-27
2023/12/09 07:17:49;;;;;;;4.90;3.20;;;7.50;99.90;;;;;;5018597;28;20447;-27
2023/12/09 07:20:15;;;;;;;5.63;3.40;;;7.50;99.90;;;;;;5017894;28;20531;-27
2023/12/09 07:22:41;;;;;;;5.57;3.23;;;7.50;99.90;;;;;;5017843;28;21181;-27
2023/12/09 07:25:08;;;;;;;5.10;3.30;;;7.50;99.90;;;;;;5018460;28;20526;-28
2023/12/09 07:27:34;;;;;;;3.20;2.90;;;7.50;99.90;;;;;;5018343;28;21227;-28
2023/12/09 07:30:01;;;;;;;3.33;3.03;;;7.50;99.90;;;;;;5018384;28;20428;-28
2023/12/09 07:32:27;;;;;;;3.60;3.00;;;7.50;99.90;;;;;;5013606;28;20493;-27
2023/12/09 07:34:53;;;;;;;6.63;3.83;;;7.50;99.90;;;;;;5009475;28;20491;-28
2023/12/09 07:37:19;;;;;;;3.40;3.10;;;7.50;99.90;;;;;;5019422;28;21005;-27
2023/12/09 07:39:45;;;;;;;5.17;3.23;;;7.50;99.90;;;;;;5002712;28;20519;-28
2023/12/09 07:42:14;;;;;;;4.17;3.00;;;7.50;99.90;;;;;;5018727;28;20893;-28
2023/12/09 07:45:05;;;;;;;5.30;3.00;;;7.50;99.90;;;;;;5022219;28;20550;-28
2023/12/09 07:47:31;;;;;;;4.57;3.00;;;7.50;99.90;;;;;;5017878;28;20429;-28
2023/12/09 07:49:57;;;;;;;5.23;3.07;;;7.50;99.90;;;;;;5007926;28;21060;-28
2023/12/09 07:52:23;;;;;;;5.47;3.00;;;7.50;99.90;;;;;;5014722;28;20427;-27
2023/12/09 07:54:49;;;;;;;3.67;3.00;;;7.50;99.90;;;;;;5018312;28;20502;-28
2023/12/09 07:57:15;;;;;;;3.47;2.97;;;7.50;99.90;;;;;;5017765;28;20186;-28
2023/12/09 07:59:41;;;;;;;4.07;3.20;;;7.50;99.90;;;;;;5013312;28;20439;-28
2023/12/09 08:02:07;;;;;;;4.30;2.80;;;7.50;99.90;;;;;;5008430;28;20452;-27
2023/12/09 08:04:35;;;;;;;4.10;3.10;;;7.50;99.90;;;;;;4985861;28;20436;-27
2023/12/09 08:07:03;;;;;;;4.50;2.97;;;7.50;99.90;;;;;;5019242;28;20496;-27
2023/12/09 08:09:32;;;;;;;7.77;3.27;;;7.50;99.90;;;;;;5019680;28;20455;-27
2023/12/09 08:11:59;;;;;;;3.70;2.50;;;7.50;99.90;;;;;;5008369;28;20814;-27
2023/12/09 08:14:29;;;;;;;3.10;2.50;;;7.60;99.90;;;;;;5015917;28;20477;-27
2023/12/09 08:16:55;;;;;;;2.93;2.63;;;7.50;99.90;;;;;;5003957;28;20431;-27
2023/12/09 08:19:21;;;;;;;4.07;3.00;;;7.50;99.90;;;;;;5022055;28;20420;-27
2023/12/09 08:21:47;;;;;;;3.40;2.73;;;7.60;99.90;;;;;;4996159;28;20997;-28
2023/12/09 08:24:13;;;;;;;3.50;2.60;;;7.60;99.90;;;;;;5021915;28;20492;-27
2023/12/09 08:26:40;;;;;;;3.60;2.80;;;7.60;99.90;;;;;;5021982;28;20420;-27
2023/12/09 08:29:11;;;;;;;3.50;2.73;;;7.60;99.90;;;;;;5005146;28;20529;-26
2023/12/09 08:31:39;;;;;;;3.27;2.70;;;7.60;99.90;;;;;;5005542;28;20490;-27
2023/12/09 08:34:05;;;;;;;7.90;2.90;;;7.60;99.90;;;;;;5003891;28;20455;-27
2023/12/09 08:36:31;;;;;;;5.50;2.50;;;7.60;99.90;;;;;;5021556;28;20479;-27
2023/12/09 08:38:58;;;;;;;3.43;2.77;;;7.60;99.90;;;;;;5019890;28;20450;-27
2023/12/09 08:41:24;;;;;;;2.53;2.30;;;7.60;99.90;;;;;;4987868;28;20443;-27
2023/12/09 08:43:53;;;;;;;3.57;3.13;;;7.60;99.90;;;;;;5021839;28;20492;-27
2023/12/09 08:46:24;;;;;;;4.67;2.93;;;7.60;99.90;;;;;;5021866;28;20455;-27
2023/12/09 08:48:51;;;;;;;4.10;2.77;;;7.60;99.90;;;;;;5020651;28;20420;-27
2023/12/09 08:51:20;;;;;;;2.60;2.40;;;7.60;99.90;;;;;;5014715;28;20463;-27
2023/12/09 08:53:55;;;;;;;5.07;2.70;;;7.60;99.90;;;;;;5024033;28;20511;-27
2023/12/09 08:56:21;;;;;;;3.87;2.90;;;7.60;99.90;;;;;;5024786;28;20454;-27
2023/12/09 08:58:49;;;;;;;4.63;3.17;;;7.60;99.90;;;;;;5003599;28;20440;-27
2023/12/09 09:01:15;;;;;;;4.70;3.00;;;7.60;99.90;;;;;;5011544;28;20438;-28
2023/12/09 09:03:43;;;;;;;7.43;2.70;;;7.60;99.90;;;;;;5006097;28;21026;-28
2023/12/09 09:06:09;;;;;;;3.20;2.93;;;7.60;99.90;;;;;;5021361;28;20517;-28
2023/12/09 09:08:35;;;;;;;3.77;2.50;;;7.60;99.90;;;;;;5021151;28;20462;-27
2023/12/09 09:11:01;;;;;;;7.30;2.80;;;7.60;99.90;;;;;;5020188;28;20476;-27
2023/12/09 09:13:29;;;;;;;4.57;2.80;;;7.60;99.90;;;;;;5020460;28;20444;-27
2023/12/09 09:15:57;;;;;;;5.53;2.87;;;7.60;99.90;;;;;;5018311;28;20520;-26
2023/12/09 09:18:23;;;;;;;3.30;2.63;;;7.60;99.90;;;;;;5010524;28;20424;-27
2023/12/09 09:20:50;;;;;;;4.67;2.50;;;7.60;99.90;;;;;;5005544;28;20424;-27
2023/12/09 09:23:16;;;;;;;7.13;3.17;;;7.60;99.90;;;;;;5012199;28;20431;-28
2023/12/09 09:25:42;;;;;;;4.30;2.97;;;7.60;99.90;;;;;;5021024;28;20440;-27
2023/12/09 09:28:10;;;;;;;4.20;2.80;;;7.60;99.90;;;;;;5020678;28;20432;-27
2023/12/09 09:30:36;;;;;;;3.83;3.10;;;7.60;99.90;;;;;;5020824;28;21264;-27
2023/12/09 09:33:02;;;;;;;6.20;2.60;;;7.70;99.90;;;;;;5064640;22;20504;-82
2023/12/09 09:35:28;;;;;;;4.33;3.13;;;7.70;99.90;;;;;;4995219;28;20528;-83
2023/12/09 09:37:54;;;;;;;3.10;2.70;;;7.70;99.90;;;;;;4991897;28;20464;-82
2023/12/09 09:40:20;;;;;;;6.37;3.20;;;7.70;99.90;;;;;;4975274;28;20651;-82
2023/12/09 09:42:56;;;;;;;3.30;2.80;;;7.70;99.90;;;;;;5008456;28;20994;-84
2023/12/09 09:45:23;;;;;;;6.07;2.83;;;7.70;99.90;;;;;;4992664;28;20496;-84
2023/12/09 09:47:54;;;;;;;4.90;2.37;;;7.70;99.90;;;;;;5018922;28;20444;-83
2023/12/09 09:50:25;;;;;;;3.90;2.40;;;7.70;99.90;;;;;;4990587;28;20528;-84
2023/12/09 09:52:54;;;;;;;3.97;2.63;;;7.70;99.90;;;;;;5008074;28;20437;-84
2023/12/09 09:55:22;;;;;;;5.17;2.53;;;7.70;99.90;;;;;;5007929;28;20522;-85
2023/12/09 09:57:48;;;;;;;6.13;2.90;;;7.70;99.90;;;;;;5007183;28;20467;-82
2023/12/09 10:00:16;;;;;;;6.90;3.20;;;7.70;99.90;;;;;;4979208;28;20461;-84
2023/12/09 10:02:47;;;;;;;5.60;3.67;;;7.70;99.90;;;;;;4994439;28;20486;-81
2023/12/09 10:05:17;;;;;;;8.50;3.70;;;7.70;99.90;;;;;;5008257;28;20433;-83
2023/12/09 10:07:44;;;;;;;8.60;3.37;;;7.70;99.90;;;;;;4990491;28;20833;-82
2023/12/09 10:10:14;;;;;;;6.40;3.20;;;7.80;99.90;;;;;;5006951;28;20582;-83
2023/12/09 10:12:42;;;;;;;3.73;3.17;;;7.80;99.90;;;;;;4990389;28;20420;-82
2023/12/09 10:15:09;;;;;;;11.20;3.27;;;7.80;99.90;;;;;;4976411;28;20511;-83
2023/12/09 10:17:35;;;;;;;5.80;3.57;;;7.80;99.90;;;;;;4989716;28;20441;-83
2023/12/09 10:20:02;;;;;;;4.67;2.70;;;7.80;99.90;;;;;;4973677;28;20788;-83
2023/12/09 10:22:31;;;;;;;5.57;3.00;;;7.80;99.90;;;;;;5006744;28;20417;-84
2023/12/09 10:25:00;;;;;;;7.83;2.57;;;7.80;99.90;;;;;;5013945;28;20428;-83
2023/12/09 10:27:27;;;;;;;3.63;2.83;;;7.80;99.90;;;;;;5001820;28;20441;-82
2023/12/09 10:47:46;;;;;;;3.30;3.00;;;7.80;99.90;;;;;;5006134;28;20883;-82
2023/12/09 10:50:13;;;;;;;4.93;3.40;;;7.80;99.90;;;;;;4979287;28;20439;-84
2023/12/09 10:52:40;;;;;;;4.40;3.20;;;7.80;99.90;;;;;;4953427;28;20866;-86
2023/12/09 10:55:09;;;;;;;7.07;2.83;;;7.80;99.90;;;;;;4965017;28;20563;-85
2023/12/09 10:57:39;;;;;;;3.27;2.70;;;7.80;99.90;;;;;;4975460;28;20440;-83
2023/12/09 11:00:17;;;;;;;4.20;2.67;;;7.90;99.90;;;;;;4996472;28;20477;-83
2023/12/09 11:02:45;;;;;;;8.87;3.87;;;7.80;99.90;;;;;;4974848;28;21044;-82
2023/12/09 11:05:14;;;;;;;5.60;3.20;;;7.90;99.90;;;;;;4975022;28;20956;-84
2023/12/09 11:07:49;;;;;;;5.00;3.13;;;7.90;99.90;;;;;;4974982;28;20425;-83
2023/12/09 11:10:15;;;;;;;7.93;3.37;;;7.90;99.90;;;;;;4972568;28;20459;-83
2023/12/09 11:12:44;;;;;;;4.20;2.80;;;7.90;99.90;;;;;;4961985;28;20484;-83
2023/12/09 11:15:13;;;;;;;9.20;3.17;;;7.90;99.90;;;;;;4981636;28;20674;-83
2023/12/09 11:17:40;;;;;;;6.23;3.43;;;7.90;99.90;;;;;;4975515;28;20969;-84
2023/12/09 11:20:13;;;;;;;10.03;3.40;;;7.90;99.90;;;;;;4988466;28;20429;-83
2023/12/09 11:22:43;;;;;;;5.47;3.30;;;8.00;99.90;;;;;;4976279;28;20452;-85
2023/12/09 11:25:21;;;;;;;9.27;3.20;;;8.00;99.90;;;;;;4960128;28;20445;-84
2023/12/09 11:27:50;;;;;;;3.87;3.00;;;8.00;99.90;;;;;;4975968;28;20448;-83
2023/12/09 11:30:34;;;;;;;13.70;4.07;;;8.00;99.90;;;;;;4976644;28;20430;-84
2023/12/09 11:33:04;;;;;;;8.30;3.40;;;7.90;99.90;;;;;;4978553;28;20457;-88
2023/12/09 11:35:33;;;;;;;4.73;3.10;;;7.90;99.90;;;;;;4962057;28;20964;-84
2023/12/09 11:38:04;;;;;;;11.20;3.67;;;7.90;99.90;;;;;;4993671;28;20429;-84
2023/12/09 11:40:36;;;;;;;6.63;3.13;;;8.00;99.90;;;;;;4976973;28;20453;-87
2023/12/09 11:43:03;;;;;;;5.63;2.37;;;8.10;99.90;;;;;;4995791;28;20472;-84
2023/12/09 11:45:31;;;;;;;5.80;2.90;;;8.20;99.90;;;;;;4987235;28;21032;-83
2023/12/09 11:48:03;;;;;;;4.30;3.10;;;8.30;99.90;;;;;;4962566;28;20553;-85
2023/12/09 11:50:34;;;;;;;7.60;2.67;;;8.30;99.90;;;;;;4956610;28;20524;-84
2023/12/09 11:53:02;;;;;;;8.70;3.47;;;8.30;99.90;;;;;;4941077;28;20458;-84
2023/12/09 11:55:29;;;;;;;6.13;2.77;;;8.40;99.90;;;;;;4965760;28;20470;-85
2023/12/09 11:57:55;;;;;;;15.00;3.47;;;8.40;99.90;;;;;;4942398;28;20462;-85
2023/12/09 12:00:21;;;;;;;7.63;3.87;;;8.30;99.90;;;;;;4973125;28;21043;-87
2023/12/09 12:02:48;;;;;;;8.00;3.00;;;8.30;99.90;;;;;;4961734;28;20480;-84
2023/12/09 12:05:14;;;;;;;8.80;3.40;;;8.40;99.90;;;;;;4964742;28;20525;-85
2023/12/09 12:07:45;;;;;;;8.20;3.23;;;8.50;99.90;;;;;;4974690;28;20430;-83
2023/12/09 12:10:15;;;;;;;8.73;3.47;;;8.50;99.90;;;;;;4958020;28;20469;-83
2023/12/09 12:12:44;;;;;;;6.43;3.67;;;8.50;99.90;;;;;;4976137;28;20446;-85
2023/12/09 12:15:12;;;;;;;10.97;3.40;;;8.50;99.90;;;;;;4977201;28;20469;-84
2023/12/09 12:17:40;;;;;;;5.23;2.80;;;8.50;99.90;;;;;;4972104;28;20426;-84
2023/12/09 12:20:10;;;;;;;7.40;3.37;;;8.50;99.90;;;;;;4945007;28;20952;-83
2023/12/09 12:22:36;;;;;;;8.00;3.00;;;8.50;99.90;;;;;;4986836;28;20447;-84
2023/12/09 12:25:08;;;;;;;10.90;3.60;;;8.50;99.90;;;;;;4978229;28;20439;-84
2023/12/09 12:27:35;;;;;;;5.97;3.00;;;8.50;99.90;;;;;;4984658;28;20467;-83
2023/12/09 12:30:06;;;;;;;6.33;2.80;;;8.50;99.90;;;;;;4985510;28;20458;-87
2023/12/09 12:32:38;;;;;;;9.80;3.10;;;8.50;99.90;;;;;;4969268;28;20449;-85
2023/12/09 12:35:10;;;;;;;9.27;3.60;;;8.50;99.90;;;;;;4968827;28;20502;-84
2023/12/09 12:37:36;;;;;;;8.50;3.37;;;8.60;99.90;;;;;;4985911;28;20189;-82
2023/12/09 12:43:48;;;;;;;6.60;2.50;;;8.70;99.90;;;;;;5016068;28;20475;-84
2023/12/09 12:46:19;;;;;;;11.53;3.43;;;8.70;99.90;;;;;;4998478;28;20459;-81
2023/12/09 12:48:50;;;;;;;8.60;3.20;;;8.70;99.90;;;;;;4996829;28;20467;-83
2023/12/09 12:51:16;;;;;;;8.73;2.93;;;8.60;99.90;;;;;;4995383;28;20478;-82
2023/12/09 12:53:42;;;;;;;7.40;3.30;;;8.60;99.90;;;;;;5011288;28;21066;-83
2023/12/09 12:56:08;;;;;;;5.17;2.90;;;8.60;99.90;;;;;;5001033;28;20453;-84
2023/12/09 12:58:34;;;;;;;6.50;2.87;;;8.60;99.90;;;;;;4973485;28;20429;-84
2023/12/09 13:01:02;;;;;;;6.50;2.57;;;8.60;99.90;;;;;;4989187;28;20548;-84
2023/12/09 13:03:28;;;;;;;3.30;2.57;;;8.60;99.90;;;;;;4988300;28;20469;-84
2023/12/09 13:05:54;;;;;;;4.43;3.00;;;8.60;99.90;;;;;;4990236;28;20428;-83
2023/12/09 13:08:28;;;;;;;5.60;2.70;;;8.60;99.90;;;;;;4989810;28;20855;-84
2023/12/09 13:10:54;;;;;;;4.33;3.27;;;8.60;99.90;;;;;;4989685;28;20520;-84
2023/12/09 13:13:23;;;;;;;6.27;3.20;;;8.60;99.90;;;;;;4989124;28;20465;-84
2023/12/09 13:15:50;;;;;;;7.27;2.83;;;8.60;99.90;;;;;;4991463;28;20437;-84
2023/12/09 13:18:17;;;;;;;3.80;2.20;;;8.60;99.90;;;;;;4989638;28;20437;-85
2023/12/09 13:20:46;;;;;;;3.43;2.47;;;8.60;99.90;;;;;;4989510;28;20498;-85
2023/12/09 13:23:13;;;;;;;8.37;2.90;;;8.60;99.90;;;;;;5013539;28;20467;-84
2023/12/09 13:25:39;;;;;;;5.87;2.63;;;8.60;99.90;;;;;;4989623;28;20433;-84
2023/12/09 13:28:05;;;;;;;6.23;2.60;;;8.60;99.90;;;;;;4997670;28;20547;-85